Time;durP1;ratioP1;P1;durP2;ratioP2;P2;SDS_P1;SDS_P2;PMS_P1;PMS_P2;Temp;Humidity;BMP_temperature;BMP_pressure;BME280_temperature;BME280_humidity;BME280_pressure;Samples;Min_cycle;Max_cycle;Signal;HPM_P1;HPM_P2
2021/07/25 00:02:22;;;;;;;20.00;15.20;;;19.60;81.30;;;;;;6074515;23;20006;-92
2021/07/25 00:04:47;;;;;;;18.38;13.52;;;19.50;81.40;;;;;;6074146;23;20029;-92
2021/07/25 00:07:13;;;;;;;19.02;14.02;;;19.50;81.60;;;;;;6074484;23;20085;-92
2021/07/25 00:09:39;;;;;;;15.13;12.68;;;19.50;81.80;;;;;;6099877;23;19999;-92
2021/07/25 00:12:05;;;;;;;14.15;11.52;;;19.50;82.00;;;;;;6074249;23;20062;-92
2021/07/25 00:14:31;;;;;;;16.98;12.98;;;19.50;82.10;;;;;;6074185;23;20330;-93
2021/07/25 00:16:56;;;;;;;16.08;12.98;;;19.50;82.30;;;;;;6074204;23;20030;-92
2021/07/25 00:19:22;;;;;;;19.58;12.40;;;19.40;82.40;;;;;;6099595;23;20038;-92
2021/07/25 00:21:47;;;;;;;15.15;12.00;;;19.40;82.60;;;;;;6074313;23;20006;-92
2021/07/25 00:24:13;;;;;;;16.35;11.35;;;19.40;82.70;;;;;;6074400;23;20423;-93
2021/07/25 00:26:48;;;;;;;13.80;11.82;;;19.40;82.80;;;;;;6074123;23;20109;-92
2021/07/25 00:29:14;;;;;;;13.82;11.65;;;19.40;83.10;;;;;;6074745;23;20010;-92
2021/07/25 00:31:40;;;;;;;16.10;11.50;;;19.40;83.30;;;;;;6074333;23;20003;-92
2021/07/25 00:34:06;;;;;;;16.23;11.38;;;19.30;83.40;;;;;;6074018;23;20378;-92
2021/07/25 00:36:31;;;;;;;15.50;11.50;;;19.30;83.50;;;;;;6073867;23;20093;-92
2021/07/25 00:38:57;;;;;;;15.82;12.02;;;19.30;83.60;;;;;;6073800;23;20425;-92
2021/07/25 00:41:23;;;;;;;16.15;10.88;;;19.30;83.80;;;;;;6073893;23;20010;-93
2021/07/25 00:43:49;;;;;;;14.60;11.80;;;19.30;83.90;;;;;;6073862;23;20009;-92
2021/07/25 00:46:16;;;;;;;14.52;11.48;;;19.30;84.10;;;;;;6073455;23;20005;-92
2021/07/25 00:48:43;;;;;;;16.65;11.85;;;19.20;84.20;;;;;;6074057;23;20007;-92
2021/07/25 00:51:09;;;;;;;14.40;11.13;;;19.20;84.40;;;;;;6073711;23;19998;-92
2021/07/25 00:53:38;;;;;;;14.13;10.82;;;19.20;84.60;;;;;;6073647;23;20027;-93
2021/07/25 00:56:08;;;;;;;11.80;9.88;;;19.20;84.80;;;;;;6073817;23;20017;-92
2021/07/25 00:58:39;;;;;;;13.15;10.70;;;19.10;85.00;;;;;;6097554;23;20414;-91
2021/07/25 01:01:06;;;;;;;13.10;10.60;;;19.10;85.10;;;;;;6074062;23;20006;-92
2021/07/25 01:03:32;;;;;;;14.80;10.00;;;19.10;85.30;;;;;;6073632;23;20066;-92
2021/07/25 01:06:21;;;;;;;12.43;9.45;;;19.00;85.50;;;;;;6098759;23;20003;-92
2021/07/25 01:08:57;;;;;;;11.85;9.18;;;19.00;85.60;;;;;;6098153;23;20414;-92
2021/07/25 01:11:45;;;;;;;13.45;10.27;;;18.90;85.70;;;;;;6097672;23;20014;-92
2021/07/25 01:14:17;;;;;;;10.93;9.50;;;19.00;86.00;;;;;;6096513;23;20053;-92
2021/07/25 01:16:42;;;;;;;13.02;10.05;;;18.90;86.10;;;;;;6073722;23;20037;-92
2021/07/25 01:19:08;;;;;;;12.65;10.55;;;18.90;86.40;;;;;;6073604;23;20081;-92
2021/07/25 01:21:34;;;;;;;11.07;9.48;;;18.90;86.60;;;;;;6073571;23;20482;-92
2021/07/25 01:23:59;;;;;;;11.48;10.15;;;18.80;86.70;;;;;;6073688;23;20085;-92
2021/07/25 01:26:30;;;;;;;11.98;9.70;;;18.80;86.80;;;;;;6073715;23;19999;-91
2021/07/25 01:29:01;;;;;;;13.10;10.45;;;18.90;87.00;;;;;;6098139;23;20068;-92
2021/07/25 01:31:38;;;;;;;15.57;12.23;;;18.90;87.10;;;;;;6075207;23;20014;-92
2021/07/25 01:34:04;;;;;;;18.45;13.45;;;18.80;87.10;;;;;;6079235;23;20092;-93
2021/07/25 01:36:30;;;;;;;18.50;14.55;;;18.80;87.10;;;;;;6079868;23;19998;-92
2021/07/25 01:38:56;;;;;;;17.70;13.63;;;18.80;87.20;;;;;;6078875;23;20457;-92
2021/07/25 01:41:22;;;;;;;19.95;15.18;;;18.80;87.30;;;;;;6074977;23;20011;-92
2021/07/25 01:43:49;;;;;;;17.65;13.45;;;18.80;87.30;;;;;;6073349;23;20006;-93
2021/07/25 01:46:16;;;;;;;19.80;15.02;;;18.70;87.30;;;;;;6073423;23;20014;-92
2021/07/25 01:48:42;;;;;;;21.13;15.82;;;18.70;87.30;;;;;;6073863;23;20426;-91
2021/07/25 01:51:09;;;;;;;19.60;14.45;;;18.70;87.50;;;;;;6073786;23;20002;-92
2021/07/25 01:53:35;;;;;;;17.60;14.20;;;18.70;87.60;;;;;;6072955;23;20470;-92
2021/07/25 01:56:01;;;;;;;17.95;13.68;;;18.60;87.60;;;;;;6073630;23;20037;-92
2021/07/25 01:58:27;;;;;;;21.05;15.35;;;18.70;87.80;;;;;;6098173;23;20326;-91
2021/07/25 02:00:53;;;;;;;15.40;12.80;;;18.60;87.70;;;;;;6072965;23;20003;-92
2021/07/25 02:03:24;;;;;;;16.23;13.50;;;18.60;87.80;;;;;;6073185;23;20039;-92
2021/07/25 02:05:51;;;;;;;14.55;12.25;;;18.60;87.80;;;;;;6073359;23;20005;-92
2021/07/25 02:08:17;;;;;;;14.35;11.73;;;18.60;87.90;;;;;;6073371;23;20041;-92
2021/07/25 02:10:48;;;;;;;15.77;12.80;;;18.60;88.00;;;;;;6075398;23;20006;-92
2021/07/25 02:13:15;;;;;;;14.85;12.45;;;18.50;88.00;;;;;;6075199;23;20003;-92
2021/07/25 02:15:41;;;;;;;14.52;11.52;;;18.60;88.40;;;;;;6075257;23;20047;-92
2021/07/25 02:18:07;;;;;;;13.18;10.93;;;18.50;88.50;;;;;;6075149;23;20334;-92
2021/07/25 02:20:34;;;;;;;16.92;11.60;;;18.50;88.60;;;;;;6075467;23;20453;-92
2021/07/25 02:23:00;;;;;;;14.32;11.93;;;18.60;88.70;;;;;;6075234;23;20006;-92
2021/07/25 02:25:26;;;;;;;17.85;12.13;;;18.60;88.90;;;;;;6075137;23;20566;-92
2021/07/25 02:27:51;;;;;;;18.55;13.45;;;18.60;88.80;;;;;;6075203;23;20007;-92
2021/07/25 02:30:17;;;;;;;15.18;12.38;;;18.60;88.90;;;;;;6074915;23;20426;-92
2021/07/25 02:32:43;;;;;;;16.70;13.27;;;18.50;88.90;;;;;;6075207;23;20006;-92
2021/07/25 02:35:09;;;;;;;19.15;13.52;;;18.50;89.00;;;;;;6075029;23;20307;-92
2021/07/25 02:37:35;;;;;;;17.85;13.32;;;18.50;89.00;;;;;;6099949;23;20009;-92
2021/07/25 02:40:01;;;;;;;16.33;13.57;;;18.50;89.00;;;;;;6075190;23;20006;-92
2021/07/25 02:42:27;;;;;;;21.58;16.13;;;18.50;89.10;;;;;;6074826;23;20061;-92
2021/07/25 02:44:53;;;;;;;19.48;15.43;;;18.50;89.00;;;;;;6075400;23;20006;-92
2021/07/25 02:47:18;;;;;;;19.48;15.15;;;18.50;89.00;;;;;;6075182;23;20006;-92
2021/07/25 02:49:44;;;;;;;20.35;14.65;;;18.50;89.00;;;;;;6075226;23;20002;-92
2021/07/25 02:52:10;;;;;;;17.50;13.88;;;18.50;89.00;;;;;;6076226;23;20326;-91
2021/07/25 02:54:36;;;;;;;19.15;15.32;;;18.50;89.10;;;;;;6076153;23;20026;-91
2021/07/25 02:57:02;;;;;;;15.10;12.90;;;18.60;89.30;;;;;;6099358;23;20014;-91
2021/07/25 02:59:30;;;;;;;17.35;13.38;;;18.60;89.20;;;;;;6075359;23;20101;-92
2021/07/25 03:01:56;;;;;;;16.35;12.90;;;18.70;89.10;;;;;;6075398;23;20310;-91
2021/07/25 03:04:21;;;;;;;15.25;12.05;;;18.70;89.20;;;;;;6075296;23;20002;-91
2021/07/25 03:06:47;;;;;;;15.13;13.32;;;18.70;89.10;;;;;;6075301;23;20010;-92
2021/07/25 03:09:13;;;;;;;15.05;13.07;;;18.80;89.10;;;;;;6074937;23;20007;-92
2021/07/25 03:11:39;;;;;;;17.02;13.52;;;18.80;88.80;;;;;;6075401;23;20003;-92
2021/07/25 03:14:06;;;;;;;15.30;12.65;;;18.80;88.90;;;;;;6074888;23;20041;-92
2021/07/25 03:16:32;;;;;;;15.68;12.52;;;18.90;88.60;;;;;;6075255;23;19998;-93
2021/07/25 03:18:58;;;;;;;15.15;12.63;;;18.90;88.60;;;;;;6074661;23;20137;-92
2021/07/25 03:21:24;;;;;;;16.33;12.10;;;19.00;88.50;;;;;;6074005;23;20043;-92
2021/07/25 03:23:49;;;;;;;13.57;12.20;;;19.10;88.40;;;;;;6074563;23;20009;-92
2021/07/25 03:26:15;;;;;;;16.17;13.13;;;19.10;88.20;;;;;;6075120;23;20002;-92
2021/07/25 03:28:41;;;;;;;13.00;11.48;;;19.10;88.10;;;;;;6100195;23;20002;-92
2021/07/25 03:31:07;;;;;;;16.27;12.85;;;19.20;88.00;;;;;;6075403;23;20007;-92
2021/07/25 03:33:32;;;;;;;18.08;13.13;;;19.30;87.90;;;;;;6075388;23;20003;-92
2021/07/25 03:35:58;;;;;;;15.05;12.85;;;19.30;87.60;;;;;;6075555;23;20085;-92
2021/07/25 03:38:25;;;;;;;13.57;12.10;;;19.40;87.30;;;;;;6075678;23;20010;-92
2021/07/25 03:40:51;;;;;;;15.85;12.25;;;19.50;87.20;;;;;;6075459;23;20007;-92
2021/07/25 03:43:17;;;;;;;13.10;11.65;;;19.60;86.90;;;;;;6075898;23;20456;-92
2021/07/25 03:45:47;;;;;;;13.73;11.77;;;19.60;86.60;;;;;;6075514;23;20085;-92
2021/07/25 03:48:14;;;;;;;15.05;12.52;;;19.70;86.40;;;;;;6076363;23;20011;-92
2021/07/25 03:50:41;;;;;;;14.27;12.88;;;19.80;86.30;;;;;;6074935;23;20473;-92
2021/07/25 03:53:09;;;;;;;15.90;12.32;;;19.90;86.10;;;;;;6075670;23;20310;-92
2021/07/25 03:55:35;;;;;;;14.10;12.00;;;19.90;85.90;;;;;;6075762;23;20022;-92
2021/07/25 03:58:02;;;;;;;14.30;12.27;;;20.00;85.60;;;;;;6074669;23;20006;-92
2021/07/25 04:00:28;;;;;;;13.70;12.27;;;20.10;85.40;;;;;;6074393;23;20006;-92
2021/07/25 04:02:54;;;;;;;14.23;12.70;;;20.20;85.30;;;;;;6074713;23;20009;-92
2021/07/25 04:05:19;;;;;;;14.05;11.77;;;20.30;85.10;;;;;;6074107;23;20006;-92
2021/07/25 04:07:45;;;;;;;18.08;12.52;;;20.40;84.90;;;;;;6074063;23;20006;-93
2021/07/25 04:10:12;;;;;;;14.38;11.95;;;20.50;84.80;;;;;;6074206;23;20006;-92
2021/07/25 04:12:37;;;;;;;12.98;11.65;;;20.50;84.60;;;;;;6074047;23;20009;-92
2021/07/25 04:15:04;;;;;;;16.02;12.15;;;20.60;84.40;;;;;;6074350;23;20006;-92
2021/07/25 04:17:30;;;;;;;13.02;11.68;;;20.70;84.30;;;;;;6073935;23;20085;-92
2021/07/25 04:19:56;;;;;;;12.82;11.50;;;20.80;84.10;;;;;;6074048;23;20045;-92
2021/07/25 04:22:22;;;;;;;15.18;12.15;;;20.90;84.00;;;;;;6074033;23;20077;-92
2021/07/25 04:24:48;;;;;;;12.27;10.95;;;21.00;83.80;;;;;;6074247;23;20013;-92
2021/07/25 04:27:15;;;;;;;11.77;10.50;;;21.20;83.60;;;;;;6073988;23;20006;-92
2021/07/25 04:29:41;;;;;;;13.10;11.70;;;21.30;83.40;;;;;;6074309;23;20351;-92
2021/07/25 04:32:07;;;;;;;13.50;10.63;;;21.40;83.30;;;;;;6099233;23;20069;-92
2021/07/25 04:34:33;;;;;;;11.65;10.45;;;21.50;83.10;;;;;;6073723;23;20005;-92
2021/07/25 04:37:01;;;;;;;13.63;11.25;;;21.50;83.10;;;;;;6073790;23;20421;-93
2021/07/25 04:39:27;;;;;;;12.32;11.05;;;21.70;83.00;;;;;;6074674;23;20011;-92
2021/07/25 04:41:56;;;;;;;12.07;10.85;;;21.70;82.80;;;;;;6074020;23;20082;-92
2021/07/25 04:44:29;;;;;;;11.98;10.02;;;21.80;82.70;;;;;;6073737;23;20003;-92
2021/07/25 04:46:57;;;;;;;14.15;10.65;;;22.00;82.60;;;;;;6074065;23;20038;-92
2021/07/25 04:49:31;;;;;;;13.73;9.82;;;22.10;82.50;;;;;;6073852;23;20009;-92
2021/07/25 04:51:57;;;;;;;11.80;10.27;;;22.20;82.30;;;;;;6098193;23;20010;-92
2021/07/25 04:54:25;;;;;;;12.75;11.45;;;22.30;82.20;;;;;;6074024;23;20489;-93
2021/07/25 04:59:26;;;;;;;12.55;10.20;;;22.60;81.70;;;;;;6099206;23;20010;-92
2021/07/25 05:01:54;;;;;;;11.32;9.40;;;22.70;81.50;;;;;;6073596;23;20010;-92
2021/07/25 05:04:22;;;;;;;12.90;10.07;;;22.80;81.20;;;;;;6073737;23;20010;-93
2021/07/25 05:06:48;;;;;;;11.65;10.40;;;22.90;81.00;;;;;;6073915;23;20006;-92
2021/07/25 05:09:14;;;;;;;12.20;10.65;;;23.00;80.70;;;;;;6073522;23;20338;-92
2021/07/25 05:11:49;;;;;;;12.05;10.30;;;23.20;80.50;;;;;;6073900;23;20009;-93
2021/07/25 05:14:37;;;;;;;13.50;10.75;;;23.30;80.20;;;;;;6073759;23;20023;-93
2021/07/25 05:17:04;;;;;;;11.27;10.07;;;23.40;79.80;;;;;;6055041;23;20006;-92
2021/07/25 05:19:32;;;;;;;13.60;11.25;;;23.50;79.50;;;;;;6073665;23;20002;-93
2021/07/25 05:22:15;;;;;;;11.43;10.30;;;23.70;79.30;;;;;;6073684;23;20030;-92
2021/07/25 05:24:45;;;;;;;10.93;9.63;;;23.80;78.90;;;;;;6074100;23;20371;-92
2021/07/25 05:27:22;;;;;;;10.75;9.65;;;23.90;78.50;;;;;;6073376;23;20077;-93
2021/07/25 05:29:50;;;;;;;11.77;10.57;;;24.10;78.10;;;;;;6073246;23;20009;-93
2021/07/25 05:32:17;;;;;;;12.02;10.68;;;24.20;77.60;;;;;;6073019;23;19998;-92
2021/07/25 05:34:43;;;;;;;11.35;10.18;;;24.30;77.20;;;;;;6073415;23;20434;-93
2021/07/25 05:37:08;;;;;;;11.38;9.88;;;24.40;76.90;;;;;;6073351;23;20077;-92
2021/07/25 05:39:34;;;;;;;12.55;9.23;;;24.50;76.40;;;;;;6074196;23;20351;-92
2021/07/25 05:42:00;;;;;;;10.82;9.73;;;24.60;75.90;;;;;;6073067;23;20007;-92
2021/07/25 05:44:26;;;;;;;10.13;9.13;;;24.70;75.50;;;;;;6073155;23;20057;-92
2021/07/25 05:46:52;;;;;;;12.38;9.98;;;24.80;75.10;;;;;;6072790;23;20058;-92
2021/07/25 05:49:17;;;;;;;13.40;10.30;;;24.90;74.50;;;;;;6073388;23;20011;-92
2021/07/25 05:51:43;;;;;;;11.75;9.43;;;25.00;74.10;;;;;;6073118;23;20141;-92
2021/07/25 05:54:14;;;;;;;9.95;8.80;;;25.10;73.80;;;;;;6073854;23;20084;-92
2021/07/25 05:56:40;;;;;;;10.80;9.65;;;25.20;73.10;;;;;;6073927;23;20017;-92
2021/07/25 05:59:10;;;;;;;11.70;8.93;;;25.40;72.50;;;;;;6074022;23;20065;-93
2021/07/25 06:01:36;;;;;;;10.05;9.02;;;25.40;71.70;;;;;;6073974;23;20326;-92
2021/07/25 06:04:03;;;;;;;9.00;8.10;;;25.50;71.00;;;;;;6073816;23;20437;-92
2021/07/25 06:06:32;;;;;;;12.63;8.93;;;25.60;70.30;;;;;;6073004;23;20014;-92
2021/07/25 06:08:58;;;;;;;8.63;7.72;;;25.70;69.80;;;;;;6072944;23;20088;-92
2021/07/25 06:11:24;;;;;;;8.35;6.88;;;25.70;69.00;;;;;;6073278;23;20002;-92
2021/07/25 06:13:51;;;;;;;9.05;7.53;;;25.80;68.10;;;;;;6073216;23;20002;-91
2021/07/25 06:16:17;;;;;;;8.15;7.28;;;25.90;67.60;;;;;;6073133;23;20038;-92
2021/07/25 06:18:48;;;;;;;8.52;7.60;;;26.10;67.60;;;;;;6072889;23;20036;-92
2021/07/25 06:21:15;;;;;;;9.23;8.30;;;26.10;66.90;;;;;;6073790;23;20322;-92
2021/07/25 06:23:40;;;;;;;8.02;7.22;;;26.20;66.40;;;;;;6072709;23;20002;-92
2021/07/25 06:26:06;;;;;;;8.35;7.55;;;26.40;66.00;;;;;;6072674;23;20330;-92
2021/07/25 06:28:32;;;;;;;8.68;7.75;;;26.40;65.60;;;;;;6098509;23;20002;-92
2021/07/25 06:30:57;;;;;;;8.90;8.00;;;26.50;65.40;;;;;;6073282;23;20002;-92
2021/07/25 06:33:28;;;;;;;10.23;8.57;;;26.60;65.00;;;;;;6073070;23;20426;-92
2021/07/25 06:35:54;;;;;;;10.25;8.68;;;26.60;64.40;;;;;;6074029;23;20023;-92
2021/07/25 06:38:20;;;;;;;10.70;9.52;;;26.60;63.90;;;;;;6074202;23;20002;-92
2021/07/25 06:40:53;;;;;;;9.63;8.57;;;26.60;63.60;;;;;;6098978;23;20296;-94
2021/07/25 06:43:21;;;;;;;7.80;7.05;;;26.60;63.70;;;;;;6073777;23;20006;-93
2021/07/25 06:45:48;;;;;;;10.27;7.28;;;26.70;63.60;;;;;;6073241;23;20363;-91
2021/07/25 06:48:19;;;;;;;7.57;6.82;;;26.80;63.00;;;;;;6072955;23;20038;-94
2021/07/25 06:50:49;;;;;;;8.40;7.03;;;26.90;62.70;;;;;;6072846;23;20010;-92
2021/07/25 06:53:18;;;;;;;8.13;7.07;;;27.00;62.40;;;;;;6073140;23;20054;-92
2021/07/25 06:55:44;;;;;;;7.70;6.93;;;27.10;61.90;;;;;;6050285;23;20026;-94
2021/07/25 06:58:10;;;;;;;7.15;6.32;;;27.20;61.60;;;;;;6046034;23;20426;-94
2021/07/25 07:00:36;;;;;;;9.43;7.28;;;27.30;62.00;;;;;;6046165;23;20007;-94
2021/07/25 07:03:02;;;;;;;8.73;6.50;;;27.40;61.80;;;;;;6046116;23;20019;-94
2021/07/25 07:05:30;;;;;;;7.88;6.43;;;27.50;61.40;;;;;;6046815;23;20045;-94
2021/07/25 07:08:01;;;;;;;8.35;7.30;;;27.60;60.80;;;;;;6045931;23;20017;-92
2021/07/25 07:10:30;;;;;;;7.45;6.75;;;27.70;60.90;;;;;;6045695;23;20011;-92
2021/07/25 07:12:57;;;;;;;7.78;6.95;;;27.80;61.10;;;;;;6045995;23;20023;-92
2021/07/25 07:15:25;;;;;;;7.47;6.78;;;27.90;61.10;;;;;;6045998;23;20006;-92
2021/07/25 07:17:53;;;;;;;8.40;6.95;;;28.10;60.90;;;;;;6071270;23;20007;-94
2021/07/25 07:20:19;;;;;;;8.98;6.38;;;28.10;60.20;;;;;;6046166;23;20051;-94
2021/07/25 07:23:01;;;;;;;7.57;6.88;;;28.20;60.00;;;;;;6045705;23;20007;-94
2021/07/25 07:25:33;;;;;;;10.13;8.65;;;28.20;59.50;;;;;;6045749;23;20426;-93
2021/07/25 07:27:59;;;;;;;9.50;8.57;;;28.10;59.80;;;;;;6046585;23;20002;-94
2021/07/25 07:30:25;;;;;;;8.85;7.95;;;28.10;59.80;;;;;;6046489;23;20007;-94
2021/07/25 07:32:51;;;;;;;9.02;8.13;;;28.10;59.80;;;;;;6046037;23;20415;-91
2021/07/25 07:35:26;;;;;;;9.05;8.10;;;28.10;59.70;;;;;;6046434;23;20011;-91
2021/07/25 07:37:51;;;;;;;10.07;9.00;;;28.10;59.40;;;;;;6045526;23;20031;-91
2021/07/25 07:40:19;;;;;;;12.70;10.25;;;28.20;59.10;;;;;;6045529;23;20074;-91
2021/07/25 07:42:44;;;;;;;10.48;9.48;;;28.30;58.30;;;;;;6048479;23;20081;-92
2021/07/25 07:45:11;;;;;;;9.77;8.88;;;28.20;58.10;;;;;;6049910;23;19999;-91
2021/07/25 07:47:37;;;;;;;8.20;7.40;;;28.20;58.20;;;;;;6049096;23;20006;-90
2021/07/25 07:50:03;;;;;;;10.75;8.50;;;28.10;58.40;;;;;;6052415;23;20003;-92
2021/07/25 07:52:29;;;;;;;9.25;8.35;;;28.20;58.40;;;;;;6053439;23;20023;-93
2021/07/25 07:54:54;;;;;;;8.68;7.80;;;28.30;58.10;;;;;;6075387;23;20018;-91
2021/07/25 07:57:20;;;;;;;7.95;7.15;;;28.30;57.60;;;;;;6106534;23;20025;-91
2021/07/25 07:59:46;;;;;;;9.88;8.88;;;28.40;57.50;;;;;;6103411;23;20088;-91
2021/07/25 08:02:12;;;;;;;9.02;8.05;;;28.60;57.10;;;;;;6103522;23;20436;-91
2021/07/25 08:04:37;;;;;;;9.50;8.52;;;28.80;56.90;;;;;;6103060;23;20030;-91
2021/07/25 08:07:03;;;;;;;8.50;7.68;;;29.00;56.20;;;;;;6102311;23;20006;-91
2021/07/25 08:09:29;;;;;;;8.65;7.55;;;29.00;55.70;;;;;;6102854;23;20383;-91
2021/07/25 08:11:55;;;;;;;8.85;7.95;;;29.10;55.10;;;;;;6102913;23;20029;-92
2021/07/25 08:14:21;;;;;;;8.25;7.45;;;29.20;54.90;;;;;;6102925;23;20002;-92
2021/07/25 08:16:48;;;;;;;8.02;7.32;;;29.20;54.70;;;;;;6103182;23;20006;-92
2021/07/25 08:19:15;;;;;;;7.80;7.00;;;29.20;54.30;;;;;;6102448;23;20042;-91
2021/07/25 08:21:41;;;;;;;9.52;6.88;;;29.30;54.00;;;;;;6102588;23;20456;-92
2021/07/25 08:24:08;;;;;;;7.25;6.55;;;29.40;53.10;;;;;;6102732;23;20337;-93
2021/07/25 08:26:34;;;;;;;7.88;6.38;;;29.50;52.80;;;;;;6103171;23;20002;-92
2021/07/25 08:29:00;;;;;;;7.25;6.55;;;29.50;52.60;;;;;;6102498;23;20076;-94
2021/07/25 08:31:26;;;;;;;7.00;6.20;;;29.50;52.10;;;;;;6102821;23;20002;-92
2021/07/25 08:33:52;;;;;;;7.22;6.28;;;29.50;51.60;;;;;;6103201;23;20322;-91
2021/07/25 08:36:18;;;;;;;7.13;6.43;;;29.50;51.20;;;;;;6102850;23;20440;-92
2021/07/25 08:38:44;;;;;;;6.28;5.68;;;29.50;51.20;;;;;;6102469;23;20390;-92
2021/07/25 08:41:16;;;;;;;5.85;5.20;;;29.60;51.10;;;;;;6102646;23;20037;-92
2021/07/25 08:43:44;;;;;;;5.88;5.28;;;29.60;51.30;;;;;;6102464;23;20002;-92
2021/07/25 08:46:19;;;;;;;7.00;5.22;;;29.60;51.40;;;;;;6102533;23;20009;-93
2021/07/25 08:48:52;;;;;;;6.50;5.45;;;29.70;51.40;;;;;;6103469;23;20010;-92
2021/07/25 08:51:25;;;;;;;5.93;5.32;;;29.70;50.90;;;;;;6103365;23;20141;-92
2021/07/25 08:54:06;;;;;;;6.67;6.03;;;29.70;50.70;;;;;;6102555;23;20396;-92
2021/07/25 08:56:33;;;;;;;6.47;5.13;;;29.80;50.80;;;;;;6102051;23;20224;-92
2021/07/25 08:59:01;;;;;;;6.05;5.45;;;29.80;50.60;;;;;;6102320;23;20029;-92
2021/07/25 09:01:33;;;;;;;6.22;5.63;;;29.80;50.40;;;;;;6103252;23;20014;-92
2021/07/25 09:03:59;;;;;;;5.67;5.17;;;29.80;50.30;;;;;;6103597;23;20006;-92
2021/07/25 09:06:41;;;;;;;7.43;6.70;;;29.90;50.30;;;;;;6102457;23;19998;-92
2021/07/25 09:09:08;;;;;;;6.60;6.00;;;29.90;49.40;;;;;;6102730;23;20369;-93
2021/07/25 09:11:36;;;;;;;6.20;5.60;;;29.80;49.50;;;;;;6102410;23;20325;-92
2021/07/25 09:14:03;;;;;;;8.20;5.80;;;29.90;49.80;;;;;;6102262;23;20056;-91
2021/07/25 09:16:30;;;;;;;6.20;5.47;;;30.00;49.70;;;;;;6103232;23;20002;-92
2021/07/25 09:18:57;;;;;;;6.53;5.93;;;30.10;49.90;;;;;;6102936;23;20002;-92
2021/07/25 09:21:46;;;;;;;6.15;5.55;;;30.20;49.60;;;;;;6101444;23;20017;-92
2021/07/25 09:24:17;;;;;;;5.93;5.30;;;30.30;49.30;;;;;;6102241;23;20034;-92
2021/07/25 09:27:03;;;;;;;6.07;5.47;;;30.40;49.10;;;;;;6102030;23;20025;-92
2021/07/25 09:29:34;;;;;;;5.82;5.22;;;30.40;48.00;;;;;;6102444;23;20002;-93
2021/07/25 09:32:17;;;;;;;6.75;5.43;;;30.40;48.50;;;;;;6102575;23;20014;-94
2021/07/25 09:34:48;;;;;;;6.47;5.45;;;30.40;48.30;;;;;;6102294;23;19998;-93
2021/07/25 09:37:16;;;;;;;5.82;5.22;;;30.50;48.60;;;;;;6103264;23;20026;-93
2021/07/25 09:39:43;;;;;;;6.10;5.47;;;30.70;48.40;;;;;;6103157;23;20002;-93
2021/07/25 09:42:10;;;;;;;6.65;5.95;;;30.70;47.90;;;;;;6103334;23;20002;-93
2021/07/25 09:44:53;;;;;;;5.75;5.07;;;30.80;47.60;;;;;;6103105;23;20014;-92
2021/07/25 09:47:33;;;;;;;8.93;5.32;;;30.80;47.30;;;;;;6102753;23;20010;-93
2021/07/25 09:50:01;;;;;;;6.45;4.90;;;30.90;47.40;;;;;;6102616;23;20008;-93
2021/07/25 09:52:34;;;;;;;5.50;4.85;;;30.90;47.30;;;;;;6103673;23;20002;-95
2021/07/25 09:55:02;;;;;;;7.47;4.93;;;31.00;47.00;;;;;;6103330;23;20018;-93
2021/07/25 09:57:29;;;;;;;5.70;5.13;;;31.00;47.10;;;;;;6103823;23;20006;-93
2021/07/25 09:59:57;;;;;;;6.25;5.57;;;31.00;46.70;;;;;;6105540;23;20449;-93
2021/07/25 10:02:35;;;;;;;5.63;5.13;;;31.00;46.30;;;;;;6105623;23;20326;-93
2021/07/25 10:05:13;;;;;;;6.03;4.82;;;31.00;46.10;;;;;;6129708;23;19994;-94
2021/07/25 10:07:40;;;;;;;5.88;5.28;;;30.90;45.50;;;;;;6102944;23;20301;-93
2021/07/25 10:10:08;;;;;;;5.38;4.88;;;30.80;46.20;;;;;;6102920;23;20002;-93
2021/07/25 10:12:36;;;;;;;5.18;4.68;;;30.80;46.10;;;;;;6103339;23;20002;-93
2021/07/25 10:15:07;;;;;;;5.10;4.60;;;30.80;46.20;;;;;;6103085;23;20085;-93
2021/07/25 10:17:38;;;;;;;4.80;4.32;;;30.70;46.40;;;;;;6106886;23;20065;-94
2021/07/25 10:20:22;;;;;;;6.00;5.40;;;30.70;46.30;;;;;;6106639;23;20006;-93
2021/07/25 10:22:50;;;;;;;5.95;5.35;;;30.80;46.00;;;;;;6106503;23;20443;-93
2021/07/25 10:25:27;;;;;;;6.38;5.78;;;30.70;45.80;;;;;;6103488;23;19998;-95
2021/07/25 10:27:57;;;;;;;5.55;5.03;;;30.60;45.10;;;;;;6102374;23;20006;-94
2021/07/25 10:30:24;;;;;;;5.78;5.25;;;30.60;45.10;;;;;;6104542;23;20069;-95
2021/07/25 10:32:51;;;;;;;5.05;4.55;;;30.60;44.90;;;;;;6104857;23;20084;-95
2021/07/25 10:35:18;;;;;;;5.30;4.80;;;30.60;45.00;;;;;;6104961;23;20002;-94
2021/07/25 10:37:46;;;;;;;5.60;4.50;;;30.70;45.00;;;;;;6104521;23;20396;-94
2021/07/25 10:40:13;;;;;;;6.97;4.88;;;30.70;45.40;;;;;;6105788;23;20076;-95
2021/07/25 10:42:51;;;;;;;5.70;4.88;;;30.80;44.40;;;;;;6104605;23;20448;-94
2021/07/25 10:45:20;;;;;;;4.85;4.43;;;30.80;43.80;;;;;;6104792;23;20006;-95
2021/07/25 10:47:47;;;;;;;4.80;4.30;;;30.80;44.00;;;;;;6104584;23;20009;-94
2021/07/25 10:50:22;;;;;;;5.20;4.70;;;30.80;43.40;;;;;;6104772;23;20076;-94
2021/07/25 10:52:59;;;;;;;4.68;3.97;;;30.70;43.80;;;;;;6106114;23;20097;-96
2021/07/25 10:55:38;;;;;;;6.32;5.72;;;30.70;44.20;;;;;;6104529;23;20041;-95
2021/07/25 10:58:20;;;;;;;5.45;4.93;;;30.70;42.40;;;;;;6104902;23;20006;-94
2021/07/25 11:00:57;;;;;;;5.75;5.15;;;30.70;43.80;;;;;;6105075;23;20006;-95
2021/07/25 11:03:26;;;;;;;5.32;4.82;;;30.70;43.70;;;;;;6104679;23;20006;-93
2021/07/25 11:06:07;;;;;;;5.30;4.80;;;30.70;43.50;;;;;;6103354;23;19998;-93
2021/07/25 11:08:41;;;;;;;5.45;4.95;;;30.80;43.40;;;;;;6104145;23;20033;-93
2021/07/25 11:11:25;;;;;;;6.60;4.60;;;30.80;43.70;;;;;;6104443;23;20421;-96
2021/07/25 11:13:52;;;;;;;5.00;4.50;;;30.90;43.60;;;;;;6103640;23;20006;-94
2021/07/25 11:16:30;;;;;;;4.95;4.47;;;30.90;43.50;;;;;;6106082;23;20013;-93
2021/07/25 11:19:11;;;;;;;5.13;4.60;;;30.90;43.40;;;;;;6106115;23;20010;-94
2021/07/25 11:21:43;;;;;;;7.13;5.30;;;31.00;43.50;;;;;;6104307;23;20499;-93
2021/07/25 11:24:18;;;;;;;;;;;31.00;43.60;;;;;;6105701;23;20005;-93
2021/07/25 11:26:49;;;;;;;4.70;4.18;;;30.90;43.30;;;;;;6128005;23;19901;-93
2021/07/25 11:29:38;;;;;;;4.60;4.20;;;30.90;43.40;;;;;;6104248;23;20013;-93
2021/07/25 11:32:34;;;;;;;5.40;4.70;;;30.90;43.30;;;;;;6103560;23;20077;-93
2021/07/25 11:35:05;;;;;;;5.85;4.60;;;31.00;43.30;;;;;;6105769;23;20089;-91
2021/07/25 11:37:40;;;;;;;5.63;5.00;;;30.90;42.80;;;;;;6102661;23;20015;-93
2021/07/25 11:40:09;;;;;;;5.00;4.55;;;31.00;43.10;;;;;;6104272;23;20117;-94
2021/07/25 11:42:36;;;;;;;4.72;4.32;;;30.90;42.70;;;;;;6102481;23;20028;-92
2021/07/25 11:45:04;;;;;;;5.07;4.57;;;30.80;42.70;;;;;;6103411;23;20006;-93
2021/07/25 11:47:30;;;;;;;4.25;3.83;;;30.70;42.80;;;;;;6103024;23;20429;-94
2021/07/25 11:49:56;;;;;;;6.60;4.50;;;30.50;42.80;;;;;;6102819;23;20033;-93
2021/07/25 11:52:24;;;;;;;8.68;4.20;;;30.40;42.60;;;;;;6103057;23;20005;-94
2021/07/25 11:54:51;;;;;;;4.82;4.18;;;30.40;42.80;;;;;;6102769;23;20046;-94
2021/07/25 11:57:22;;;;;;;5.60;4.80;;;30.40;42.80;;;;;;6103271;23;20012;-92
2021/07/25 11:59:50;;;;;;;6.07;4.75;;;30.50;43.00;;;;;;6103212;23;20017;-94
2021/07/25 12:02:26;;;;;;;5.40;4.90;;;30.60;43.00;;;;;;6103047;23;20053;-94
2021/07/25 12:04:53;;;;;;;7.28;4.50;;;30.70;43.00;;;;;;6102794;23;20041;-94
2021/07/25 12:07:29;;;;;;;4.97;4.57;;;30.70;42.60;;;;;;6103520;23;20029;-94
2021/07/25 12:09:56;;;;;;;5.35;4.15;;;30.80;42.90;;;;;;6103274;23;20002;-93
2021/07/25 12:12:29;;;;;;;5.20;4.30;;;30.90;42.80;;;;;;6103581;23;20006;-95
2021/07/25 12:15:03;;;;;;;5.60;4.15;;;31.10;42.80;;;;;;6104146;23;20006;-94
2021/07/25 12:17:52;;;;;;;5.00;4.50;;;31.30;42.50;;;;;;6103785;23;20022;-94
2021/07/25 12:20:27;;;;;;;4.28;3.88;;;31.50;41.90;;;;;;6103605;23;20017;-92
2021/07/25 12:22:57;;;;;;;5.40;4.65;;;31.60;42.40;;;;;;6106092;23;20002;-92
2021/07/25 12:25:33;;;;;;;5.03;4.53;;;31.70;41.90;;;;;;6104310;23;20013;-93
2021/07/25 12:28:13;;;;;;;5.28;4.28;;;31.80;41.90;;;;;;6103459;23;20010;-93
2021/07/25 12:30:49;;;;;;;4.55;4.10;;;31.80;41.60;;;;;;6102743;23;20005;-93
2021/07/25 12:33:21;;;;;;;5.35;4.40;;;31.80;41.50;;;;;;6103331;23;20002;-93
2021/07/25 12:35:47;;;;;;;5.40;4.57;;;32.10;42.10;;;;;;6104002;23;20084;-94
2021/07/25 12:38:17;;;;;;;4.32;3.80;;;32.40;42.10;;;;;;6103318;23;20005;-94
2021/07/25 12:41:00;;;;;;;5.10;4.40;;;32.70;41.70;;;;;;6102719;23;20016;-94
2021/07/25 12:43:27;;;;;;;;;;;33.10;41.20;;;;;;6104228;23;20009;-93
2021/07/25 12:45:54;;;;;;;3.97;3.47;;;33.40;40.60;;;;;;6103546;23;19901;-93
2021/07/25 12:48:32;;;;;;;4.30;3.85;;;33.80;41.60;;;;;;6104219;23;20002;-93
2021/07/25 12:53:52;;;;;;;6.90;4.32;;;34.60;38.90;;;;;;6128291;23;20485;-95